sensor_id;sensor_type;location;lat;lon;timestamp;pressure;altitude;pressure_sealevel;temperature;humidity
5283;BME280;15376;48.540;9.268;2023-04-02T00:08:58;96755.94;;;7.05;100.00
5283;BME280;15376;48.540;9.268;2023-04-02T00:11:32;96756.28;;;7.01;100.00
5283;BME280;15376;48.540;9.268;2023-04-02T00:14:00;96761.09;;;6.98;100.00
5283;BME280;15376;48.540;9.268;2023-04-02T00:16:27;96761.47;;;6.95;100.00
5283;BME280;15376;48.540;9.268;2023-04-02T00:18:55;96754.88;;;6.91;100.00
5283;BME280;15376;48.540;9.268;2023-04-02T00:21:28;96738.38;;;6.74;100.00
5283;BME280;15376;48.540;9.268;2023-04-02T00:23:58;96757.41;;;6.84;100.00
5283;BME280;15376;48.540;9.268;2023-04-02T00:26:32;96764.88;;;6.81;100.00
5283;BME280;15376;48.540;9.268;2023-04-02T00:29:00;96766.88;;;6.79;100.00
5283;BME280;15376;48.540;9.268;2023-04-02T00:31:26;96754.75;;;6.69;100.00
5283;BME280;15376;48.540;9.268;2023-04-02T00:33:51;96764.78;;;6.74;100.00
5283;BME280;15376;48.540;9.268;2023-04-02T00:36:18;96767.94;;;6.69;100.00
5283;BME280;15376;48.540;9.268;2023-04-02T00:38:46;96772.28;;;6.62;100.00
5283;BME280;15376;48.540;9.268;2023-04-02T00:41:19;96778.38;;;6.63;100.00
5283;BME280;15376;48.540;9.268;2023-04-02T00:43:47;96775.78;;;6.55;100.00
5283;BME280;15376;48.540;9.268;2023-04-02T00:46:16;96773.19;;;6.47;100.00
5283;BME280;15376;48.540;9.268;2023-04-02T00:51:27;96790.28;;;6.28;100.00
5283;BME280;15376;48.540;9.268;2023-04-02T00:53:55;96788.38;;;6.14;100.00
5283;BME280;15376;48.540;9.268;2023-04-02T00:56:26;96781.56;;;6.27;100.00
5283;BME280;15376;48.540;9.268;2023-04-02T00:58:55;96790.47;;;6.26;100.00
5283;BME280;15376;48.540;9.268;2023-04-02T01:01:27;96786.19;;;6.25;100.00
5283;BME280;15376;48.540;9.268;2023-04-02T01:03:59;96761.31;;;5.97;100.00
5283;BME280;15376;48.540;9.268;2023-04-02T01:06:31;96782.63;;;6.10;100.00
5283;BME280;15376;48.540;9.268;2023-04-02T01:23:08;96806.53;;;5.53;100.00
5283;BME280;15376;48.540;9.268;2023-04-02T01:28:13;96808.03;;;5.48;100.00
5283;BME280;15376;48.540;9.268;2023-04-02T01:30:46;96811.97;;;5.44;100.00
5283;BME280;15376;48.540;9.268;2023-04-02T01:33:13;96812.13;;;5.42;100.00
5283;BME280;15376;48.540;9.268;2023-04-02T01:35:40;96819.38;;;5.40;100.00
5283;BME280;15376;48.540;9.268;2023-04-02T01:38:12;96779.59;;;5.27;100.00
5283;BME280;15376;48.540;9.268;2023-04-02T01:40:47;96810.16;;;5.52;100.00
5283;BME280;15376;48.540;9.268;2023-04-02T01:43:42;96789.75;;;5.46;100.00
5283;BME280;15376;48.540;9.268;2023-04-02T01:46:43;96810.75;;;5.62;100.00
5283;BME280;15376;48.540;9.268;2023-04-02T01:49:18;96800.94;;;5.56;100.00
5283;BME280;15376;48.540;9.268;2023-04-02T01:51:49;96809.50;;;5.58;100.00
5283;BME280;15376;48.540;9.268;2023-04-02T01:54:16;96807.31;;;5.62;100.00
5283;BME280;15376;48.540;9.268;2023-04-02T01:56:42;96810.94;;;5.61;100.00
5283;BME280;15376;48.540;9.268;2023-04-02T01:59:09;96791.41;;;5.31;100.00
5283;BME280;15376;48.540;9.268;2023-04-02T02:01:43;96812.81;;;5.28;100.00
5283;BME280;15376;48.540;9.268;2023-04-02T02:04:11;96817.75;;;5.23;100.00
5283;BME280;15376;48.540;9.268;2023-04-02T02:06:37;96817.94;;;5.13;100.00
5283;BME280;15376;48.540;9.268;2023-04-02T02:09:05;96821.91;;;5.17;100.00
5283;BME280;15376;48.540;9.268;2023-04-02T02:11:32;96826.00;;;5.03;100.00
5283;BME280;15376;48.540;9.268;2023-04-02T02:14:08;96806.25;;;4.91;100.00
5283;BME280;15376;48.540;9.268;2023-04-02T02:16:37;96830.94;;;5.07;100.00
5283;BME280;15376;48.540;9.268;2023-04-02T02:19:18;96817.44;;;5.01;100.00
5283;BME280;15376;48.540;9.268;2023-04-02T02:21:50;96830.59;;;5.10;100.00
5283;BME280;15376;48.540;9.268;2023-04-02T02:24:23;96826.81;;;5.04;100.00
5283;BME280;15376;48.540;9.268;2023-04-02T02:29:30;96838.16;;;5.05;100.00
5283;BME280;15376;48.540;9.268;2023-04-02T02:31:57;96838.16;;;5.13;100.00
5283;BME280;15376;48.540;9.268;2023-04-02T02:34:30;96839.78;;;5.22;100.00
5283;BME280;15376;48.540;9.268;2023-04-02T02:37:28;96838.47;;;5.34;100.00
5283;BME280;15376;48.540;9.268;2023-04-02T02:39:56;96845.53;;;5.42;100.00
5283;BME280;15376;48.540;9.268;2023-04-02T02:44:55;96853.94;;;5.37;100.00
5283;BME280;15376;48.540;9.268;2023-04-02T02:47:25;96853.28;;;5.43;100.00
5283;BME280;15376;48.540;9.268;2023-04-02T02:49:59;96851.31;;;5.53;100.00
5283;BME280;15376;48.540;9.268;2023-04-02T02:52:30;96853.44;;;5.58;100.00
5283;BME280;15376;48.540;9.268;2023-04-02T02:55:05;96859.66;;;5.65;100.00
5283;BME280;15376;48.540;9.268;2023-04-02T02:57:37;96829.91;;;5.56;100.00
5283;BME280;15376;48.540;9.268;2023-04-02T03:00:06;96861.44;;;5.81;100.00
5283;BME280;15376;48.540;9.268;2023-04-02T03:02:36;96858.81;;;5.73;100.00
5283;BME280;15376;48.540;9.268;2023-04-02T03:05:03;96825.78;;;5.46;100.00
5283;BME280;15376;48.540;9.268;2023-04-02T03:07:29;96860.31;;;5.67;100.00
5283;BME280;15376;48.540;9.268;2023-04-02T03:10:15;96868.72;;;5.62;100.00
5283;BME280;15376;48.540;9.268;2023-04-02T03:17:44;96876.09;;;5.83;100.00
5283;BME280;15376;48.540;9.268;2023-04-02T03:28:33;96877.53;;;6.02;100.00
5283;BME280;15376;48.540;9.268;2023-04-02T03:31:13;96880.66;;;6.06;100.00
5283;BME280;15376;48.540;9.268;2023-04-02T03:33:48;96879.34;;;6.10;100.00
5283;BME280;15376;48.540;9.268;2023-04-02T03:36:29;96884.09;;;6.14;100.00
5283;BME280;15376;48.540;9.268;2023-04-02T03:39:13;96866.63;;;6.13;100.00
5283;BME280;15376;48.540;9.268;2023-04-02T03:41:52;96891.13;;;6.30;100.00
5283;BME280;15376;48.540;9.268;2023-04-02T03:44:27;96895.56;;;6.38;100.00
5283;BME280;15376;48.540;9.268;2023-04-02T03:46:59;96889.09;;;6.40;100.00
5283;BME280;15376;48.540;9.268;2023-04-02T03:49:48;96895.84;;;6.43;100.00
5283;BME280;15376;48.540;9.268;2023-04-02T03:52:28;96899.31;;;6.43;100.00
5283;BME280;15376;48.540;9.268;2023-04-02T03:54:59;96909.03;;;6.43;100.00
5283;BME280;15376;48.540;9.268;2023-04-02T03:57:28;96902.09;;;6.42;100.00
5283;BME280;15376;48.540;9.268;2023-04-02T04:00:04;96911.50;;;6.44;100.00
5283;BME280;15376;48.540;9.268;2023-04-02T04:02:43;96915.94;;;6.44;100.00
5283;BME280;15376;48.540;9.268;2023-04-02T04:05:30;96913.31;;;6.44;100.00
5283;BME280;15376;48.540;9.268;2023-04-02T04:08:00;96907.28;;;6.35;100.00
5283;BME280;15376;48.540;9.268;2023-04-02T04:10:27;96912.97;;;6.47;100.00
5283;BME280;15376;48.540;9.268;2023-04-02T04:13:00;96899.19;;;6.37;100.00
5283;BME280;15376;48.540;9.268;2023-04-02T04:15:46;96923.22;;;6.42;100.00
5283;BME280;15376;48.540;9.268;2023-04-02T04:18:36;96929.94;;;6.52;100.00
5283;BME280;15376;48.540;9.268;2023-04-02T04:21:18;96936.03;;;6.53;100.00
5283;BME280;15376;48.540;9.268;2023-04-02T04:23:54;96937.00;;;6.60;100.00
5283;BME280;15376;48.540;9.268;2023-04-02T04:26:21;96938.63;;;6.61;100.00
5283;BME280;15376;48.540;9.268;2023-04-02T04:29:16;96936.81;;;6.61;100.00
5283;BME280;15376;48.540;9.268;2023-04-02T04:31:48;96938.28;;;6.64;100.00
5283;BME280;15376;48.540;9.268;2023-04-02T04:34:19;96947.19;;;6.63;100.00
5283;BME280;15376;48.540;9.268;2023-04-02T04:36:50;96952.13;;;6.66;100.00
5283;BME280;15376;48.540;9.268;2023-04-02T04:39:43;96943.22;;;6.67;100.00
5283;BME280;15376;48.540;9.268;2023-04-02T04:42:17;96938.81;;;6.59;100.00
5283;BME280;15376;48.540;9.268;2023-04-02T04:44:51;96945.38;;;6.63;100.00
5283;BME280;15376;48.540;9.268;2023-04-02T04:47:24;96937.50;;;6.55;100.00
5283;BME280;15376;48.540;9.268;2023-04-02T04:50:04;96958.72;;;6.70;100.00
5283;BME280;15376;48.540;9.268;2023-04-02T04:52:38;96958.72;;;6.70;100.00
5283;BME280;15376;48.540;9.268;2023-04-02T04:57:49;96961.34;;;6.70;100.00
5283;BME280;15376;48.540;9.268;2023-04-02T05:00:42;96932.09;;;6.49;100.00
5283;BME280;15376;48.540;9.268;2023-04-02T05:03:41;96966.97;;;6.67;100.00
5283;BME280;15376;48.540;9.268;2023-04-02T05:06:16;96953.97;;;6.57;100.00
5283;BME280;15376;48.540;9.268;2023-04-02T05:08:46;96976.69;;;6.66;100.00
5283;BME280;15376;48.540;9.268;2023-04-02T05:11:39;96969.47;;;6.60;100.00
5283;BME280;15376;48.540;9.268;2023-04-02T05:14:21;96966.19;;;6.58;100.00
5283;BME280;15376;48.540;9.268;2023-04-02T05:16:52;96983.78;;;6.66;100.00
5283;BME280;15376;48.540;9.268;2023-04-02T05:19:40;96979.69;;;6.63;100.00
5283;BME280;15376;48.540;9.268;2023-04-02T05:22:21;96988.25;;;6.65;100.00
5283;BME280;15376;48.540;9.268;2023-04-02T05:25:08;96984.78;;;6.65;100.00
5283;BME280;15376;48.540;9.268;2023-04-02T05:27:42;96972.13;;;6.52;100.00
5283;BME280;15376;48.540;9.268;2023-04-02T05:30:55;96996.00;;;6.67;100.00
5283;BME280;15376;48.540;9.268;2023-04-02T05:33:25;96991.06;;;6.64;100.00
5283;BME280;15376;48.540;9.268;2023-04-02T05:36:08;96996.16;;;6.65;100.00
5283;BME280;15376;48.540;9.268;2023-04-02T05:38:37;96999.28;;;6.69;100.00
5283;BME280;15376;48.540;9.268;2023-04-02T05:41:27;97009.84;;;6.69;100.00
5283;BME280;15376;48.540;9.268;2023-04-02T05:44:20;97009.50;;;6.72;100.00
5283;BME280;15376;48.540;9.268;2023-04-02T05:46:56;97013.09;;;6.79;100.00
5283;BME280;15376;48.540;9.268;2023-04-02T05:49:38;97004.56;;;6.69;100.00
5283;BME280;15376;48.540;9.268;2023-04-02T05:52:10;97026.75;;;6.83;100.00
5283;BME280;15376;48.540;9.268;2023-04-02T05:57:33;97028.88;;;6.87;100.00
5283;BME280;15376;48.540;9.268;2023-04-02T06:00:05;97029.88;;;6.86;100.00
5283;BME280;15376;48.540;9.268;2023-04-02T06:02:46;97031.53;;;6.87;100.00
5283;BME280;15376;48.540;9.268;2023-04-02T06:05:21;97031.66;;;6.94;100.00
5283;BME280;15376;48.540;9.268;2023-04-02T06:07:55;97031.50;;;6.95;100.00
5283;BME280;15376;48.540;9.268;2023-04-02T06:10:28;97030.16;;;6.99;100.00
5283;BME280;15376;48.540;9.268;2023-04-02T06:12:58;97041.03;;;7.05;100.00
5283;BME280;15376;48.540;9.268;2023-04-02T06:15:29;97043.81;;;7.11;100.00
5283;BME280;15376;48.540;9.268;2023-04-02T06:20:24;97050.34;;;7.23;100.00
5283;BME280;15376;48.540;9.268;2023-04-02T06:23:30;97058.22;;;7.31;100.00
5283;BME280;15376;48.540;9.268;2023-04-02T06:28:44;97056.97;;;7.50;100.00
5283;BME280;15376;48.540;9.268;2023-04-02T06:31:24;97056.47;;;7.55;100.00
5283;BME280;15376;48.540;9.268;2023-04-02T06:33:51;97062.16;;;7.66;100.00
5283;BME280;15376;48.540;9.268;2023-04-02T06:36:19;97057.69;;;7.67;100.00
5283;BME280;15376;48.540;9.268;2023-04-02T06:38:46;97074.44;;;7.82;100.00
5283;BME280;15376;48.540;9.268;2023-04-02T06:41:19;97066.38;;;7.76;100.00
5283;BME280;15376;48.540;9.268;2023-04-02T06:44:15;97058.16;;;7.70;100.00
5283;BME280;15376;48.540;9.268;2023-04-02T06:46:48;97080.50;;;7.91;100.00
5283;BME280;15376;48.540;9.268;2023-04-02T06:49:32;97077.41;;;8.02;100.00
5283;BME280;15376;48.540;9.268;2023-04-02T06:52:00;97090.25;;;8.13;100.00
5283;BME280;15376;48.540;9.268;2023-04-02T06:54:26;97083.81;;;8.30;100.00
5283;BME280;15376;48.540;9.268;2023-04-02T06:56:53;97086.88;;;8.42;100.00
5283;BME280;15376;48.540;9.268;2023-04-02T06:59:20;97091.81;;;8.45;100.00
5283;BME280;15376;48.540;9.268;2023-04-02T07:02:04;97103.91;;;8.62;100.00
5283;BME280;15376;48.540;9.268;2023-04-02T07:04:36;97099.06;;;8.66;100.00
5283;BME280;15376;48.540;9.268;2023-04-02T07:07:01;97106.41;;;8.79;100.00
5283;BME280;15376;48.540;9.268;2023-04-02T07:09:27;97105.84;;;8.83;100.00
5283;BME280;15376;48.540;9.268;2023-04-02T07:11:52;97108.03;;;8.94;100.00
5283;BME280;15376;48.540;9.268;2023-04-02T07:14:17;97110.69;;;9.09;100.00
5283;BME280;15376;48.540;9.268;2023-04-02T07:16:43;97113.69;;;9.21;100.00
5283;BME280;15376;48.540;9.268;2023-04-02T07:19:16;97118.28;;;9.12;100.00
5283;BME280;15376;48.540;9.268;2023-04-02T07:21:43;97124.28;;;9.21;100.00
5283;BME280;15376;48.540;9.268;2023-04-02T07:24:08;97112.25;;;9.18;100.00
5283;BME280;15376;48.540;9.268;2023-04-02T07:26:33;97122.91;;;9.25;100.00
5283;BME280;15376;48.540;9.268;2023-04-02T07:28:59;97122.09;;;9.24;100.00
5283;BME280;15376;48.540;9.268;2023-04-02T07:31:26;97122.72;;;9.41;100.00
5283;BME280;15376;48.540;9.268;2023-04-02T07:33:55;97126.13;;;9.50;100.00
5283;BME280;15376;48.540;9.268;2023-04-02T07:36:23;97135.53;;;9.52;100.00
5283;BME280;15376;48.540;9.268;2023-04-02T07:38:48;97134.03;;;9.64;100.00
5283;BME280;15376;48.540;9.268;2023-04-02T07:41:14;97133.88;;;9.51;100.00
5283;BME280;15376;48.540;9.268;2023-04-02T07:43:40;97138.97;;;9.67;100.00
5283;BME280;15376;48.540;9.268;2023-04-02T07:46:07;97139.22;;;9.73;100.00
5283;BME280;15376;48.540;9.268;2023-04-02T07:48:32;97139.00;;;9.89;100.00
5283;BME280;15376;48.540;9.268;2023-04-02T07:50:58;97141.88;;;10.09;100.00
5283;BME280;15376;48.540;9.268;2023-04-02T07:53:35;97144.78;;;10.28;100.00
5283;BME280;15376;48.540;9.268;2023-04-02T07:56:03;97143.03;;;10.42;100.00
5283;BME280;15376;48.540;9.268;2023-04-02T07:58:29;97146.41;;;10.29;100.00
5283;BME280;15376;48.540;9.268;2023-04-02T08:00:55;97141.94;;;10.15;100.00
5283;BME280;15376;48.540;9.268;2023-04-02T08:03:21;97157.16;;;10.21;100.00
5283;BME280;15376;48.540;9.268;2023-04-02T08:05:55;97148.34;;;10.42;100.00
5283;BME280;15376;48.540;9.268;2023-04-02T08:08:22;97155.09;;;10.45;100.00
5283;BME280;15376;48.540;9.268;2023-04-02T08:10:49;97167.56;;;10.44;100.00
5283;BME280;15376;48.540;9.268;2023-04-02T08:13:16;97161.69;;;10.27;100.00
5283;BME280;15376;48.540;9.268;2023-04-02T08:15:41;97170.75;;;10.33;100.00
5283;BME280;15376;48.540;9.268;2023-04-02T08:18:07;97171.19;;;10.37;100.00
5283;BME280;15376;48.540;9.268;2023-04-02T08:20:33;97165.38;;;10.26;100.00
5283;BME280;15376;48.540;9.268;2023-04-02T08:22:58;97174.03;;;9.99;100.00
5283;BME280;15376;48.540;9.268;2023-04-02T08:25:25;97179.72;;;9.96;100.00
5283;BME280;15376;48.540;9.268;2023-04-02T08:27:51;97186.94;;;9.87;100.00
5283;BME280;15376;48.540;9.268;2023-04-02T08:30:18;97179.06;;;9.94;100.00
5283;BME280;15376;48.540;9.268;2023-04-02T08:32:43;97190.69;;;9.93;100.00
5283;BME280;15376;48.540;9.268;2023-04-02T08:35:11;97199.03;;;10.11;100.00
5283;BME280;15376;48.540;9.268;2023-04-02T08:37:37;97183.94;;;9.76;100.00
5283;BME280;15376;48.540;9.268;2023-04-02T08:40:04;97195.84;;;9.50;100.00
5283;BME280;15376;48.540;9.268;2023-04-02T08:47:47;97208.63;;;9.61;100.00
5283;BME280;15376;48.540;9.268;2023-04-02T08:50:32;97217.31;;;9.70;100.00
5283;BME280;15376;48.540;9.268;2023-04-02T08:53:01;97204.72;;;9.57;100.00
5283;BME280;15376;48.540;9.268;2023-04-02T08:55:38;97222.25;;;9.73;100.00
5283;BME280;15376;48.540;9.268;2023-04-02T09:00:46;97231.84;;;9.74;100.00
5283;BME280;15376;48.540;9.268;2023-04-02T09:03:20;97221.06;;;9.76;100.00
5283;BME280;15376;48.540;9.268;2023-04-02T09:05:48;97231.25;;;10.08;100.00
5283;BME280;15376;48.540;9.268;2023-04-02T09:08:18;97220.84;;;10.21;100.00
5283;BME280;15376;48.540;9.268;2023-04-02T09:10:50;97230.97;;;10.32;100.00
5283;BME280;15376;48.540;9.268;2023-04-02T09:13:22;97229.69;;;10.50;100.00
5283;BME280;15376;48.540;9.268;2023-04-02T09:15:51;97228.94;;;10.56;100.00
5283;BME280;15376;48.540;9.268;2023-04-02T09:18:19;97236.88;;;10.71;100.00
5283;BME280;15376;48.540;9.268;2023-04-02T09:20:44;97238.44;;;10.65;100.00
5283;BME280;15376;48.540;9.268;2023-04-02T09:23:17;97242.09;;;10.64;100.00
5283;BME280;15376;48.540;9.268;2023-04-02T09:25:47;97236.28;;;10.54;100.00
5283;BME280;15376;48.540;9.268;2023-04-02T09:28:13;97249.81;;;10.59;100.00
5283;BME280;15376;48.540;9.268;2023-04-02T09:33:47;97259.63;;;10.58;100.00
5283;BME280;15376;48.540;9.268;2023-04-02T09:36:25;97262.34;;;10.65;100.00
5283;BME280;15376;48.540;9.268;2023-04-02T09:41:37;97276.25;;;10.88;100.00
5283;BME280;15376;48.540;9.268;2023-04-02T09:46:48;97274.06;;;11.20;100.00
5283;BME280;15376;48.540;9.268;2023-04-02T09:49:15;97280.94;;;11.35;100.00
5283;BME280;15376;48.540;9.268;2023-04-02T09:51:42;97266.25;;;11.12;100.00
5283;BME280;15376;48.540;9.268;2023-04-02T09:54:13;97286.41;;;11.27;98.13
5283;BME280;15376;48.540;9.268;2023-04-02T09:56:40;97276.00;;;11.05;100.00
5283;BME280;15376;48.540;9.268;2023-04-02T09:59:21;97289.94;;;11.34;100.00
5283;BME280;15376;48.540;9.268;2023-04-02T10:01:58;97286.72;;;11.39;100.00
5283;BME280;15376;48.540;9.268;2023-04-02T10:04:46;97295.53;;;12.02;100.00
5283;BME280;15376;48.540;9.268;2023-04-02T10:07:51;97294.50;;;12.03;96.13
5283;BME280;15376;48.540;9.268;2023-04-02T10:10:32;97296.94;;;11.91;98.52
5283;BME280;15376;48.540;9.268;2023-04-02T10:13:07;97310.19;;;11.85;95.35
5283;BME280;15376;48.540;9.268;2023-04-02T10:15:47;97306.78;;;11.97;96.10
5283;BME280;15376;48.540;9.268;2023-04-02T10:21:05;97313.69;;;12.26;89.70
5283;BME280;15376;48.540;9.268;2023-04-02T10:23:31;97317.63;;;11.96;89.12
5283;BME280;15376;48.540;9.268;2023-04-02T10:26:17;97301.72;;;12.09;90.54
5283;BME280;15376;48.540;9.268;2023-04-02T10:32:05;97320.81;;;12.19;88.51
5283;BME280;15376;48.540;9.268;2023-04-02T10:34:37;97310.44;;;12.31;88.94
5283;BME280;15376;48.540;9.268;2023-04-02T10:37:43;97317.22;;;13.08;85.33
5283;BME280;15376;48.540;9.268;2023-04-02T10:42:54;97323.41;;;13.28;83.69
5283;BME280;15376;48.540;9.268;2023-04-02T10:45:45;97321.78;;;13.80;86.92
5283;BME280;15376;48.540;9.268;2023-04-02T10:56:39;97339.41;;;13.21;81.40
5283;BME280;15376;48.540;9.268;2023-04-02T10:59:18;97334.50;;;13.64;77.41
5283;BME280;15376;48.540;9.268;2023-04-02T11:01:51;97334.91;;;13.88;79.17
5283;BME280;15376;48.540;9.268;2023-04-02T11:06:45;97343.75;;;13.95;82.54
5283;BME280;15376;48.540;9.268;2023-04-02T11:09:19;97348.84;;;14.03;81.19
5283;BME280;15376;48.540;9.268;2023-04-02T11:11:50;97350.03;;;14.33;80.63
5283;BME280;15376;48.540;9.268;2023-04-02T11:14:28;97354.38;;;14.01;78.35
5283;BME280;15376;48.540;9.268;2023-04-02T11:16:55;97354.63;;;13.47;80.52
5283;BME280;15376;48.540;9.268;2023-04-02T11:22:01;97348.88;;;13.63;80.93
5283;BME280;15376;48.540;9.268;2023-04-02T11:24:36;97343.94;;;13.60;80.85
5283;BME280;15376;48.540;9.268;2023-04-02T11:29:36;97351.66;;;13.02;85.42
5283;BME280;15376;48.540;9.268;2023-04-02T11:32:35;97358.56;;;12.77;86.86
5283;BME280;15376;48.540;9.268;2023-04-02T11:35:35;97349.66;;;12.57;87.97
5283;BME280;15376;48.540;9.268;2023-04-02T11:40:45;97358.16;;;12.80;87.47
5283;BME280;15376;48.540;9.268;2023-04-02T11:48:40;97363.63;;;13.33;88.00
5283;BME280;15376;48.540;9.268;2023-04-02T11:53:48;97354.88;;;12.78;87.71
5283;BME280;15376;48.540;9.268;2023-04-02T11:56:18;97369.78;;;12.66;86.54
5283;BME280;15376;48.540;9.268;2023-04-02T11:58:53;97378.09;;;12.09;90.37
5283;BME280;15376;48.540;9.268;2023-04-02T12:09:48;97370.31;;;11.79;97.78
5283;BME280;15376;48.540;9.268;2023-04-02T12:12:37;97393.09;;;12.16;96.78
5283;BME280;15376;48.540;9.268;2023-04-02T12:15:06;97385.50;;;12.54;96.80
5283;BME280;15376;48.540;9.268;2023-04-02T12:17:49;97398.41;;;12.51;94.94
5283;BME280;15376;48.540;9.268;2023-04-02T12:20:23;97403.50;;;12.11;97.11
5283;BME280;15376;48.540;9.268;2023-04-02T12:22:53;97398.31;;;12.31;95.87
5283;BME280;15376;48.540;9.268;2023-04-02T12:28:15;97404.34;;;12.53;92.72
5283;BME280;15376;48.540;9.268;2023-04-02T12:30:46;97396.63;;;12.64;93.91
5283;BME280;15376;48.540;9.268;2023-04-02T12:33:16;97410.66;;;12.39;92.48
5283;BME280;15376;48.540;9.268;2023-04-02T12:35:49;97407.84;;;12.19;92.97
5283;BME280;15376;48.540;9.268;2023-04-02T12:38:23;97419.94;;;12.21;90.64
5283;BME280;15376;48.540;9.268;2023-04-02T12:40:53;97416.31;;;12.01;91.49
5283;BME280;15376;48.540;9.268;2023-04-02T12:43:23;97410.88;;;11.66;93.02
5283;BME280;15376;48.540;9.268;2023-04-02T12:45:53;97425.22;;;11.87;93.89
5283;BME280;15376;48.540;9.268;2023-04-02T12:48:20;97418.19;;;11.79;94.69
5283;BME280;15376;48.540;9.268;2023-04-02T12:50:46;97419.09;;;11.86;93.41
5283;BME280;15376;48.540;9.268;2023-04-02T12:53:33;97437.41;;;12.02;90.96
5283;BME280;15376;48.540;9.268;2023-04-02T12:56:00;97420.41;;;11.97;91.34
5283;BME280;15376;48.540;9.268;2023-04-02T13:00:51;97433.75;;;12.31;93.08
5283;BME280;15376;48.540;9.268;2023-04-02T13:03:19;97415.88;;;12.60;91.43
5283;BME280;15376;48.540;9.268;2023-04-02T13:05:50;97436.66;;;12.84;90.94
5283;BME280;15376;48.540;9.268;2023-04-02T13:08:28;97424.63;;;12.95;90.18
5283;BME280;15376;48.540;9.268;2023-04-02T13:10:58;97433.22;;;12.90;90.48
5283;BME280;15376;48.540;9.268;2023-04-02T13:13:31;97424.19;;;12.91;88.70
5283;BME280;15376;48.540;9.268;2023-04-02T13:16:04;97430.22;;;12.59;88.80
5283;BME280;15376;48.540;9.268;2023-04-02T13:18:31;97440.09;;;12.65;87.32
5283;BME280;15376;48.540;9.268;2023-04-02T13:21:22;97438.44;;;12.64;89.41
5283;BME280;15376;48.540;9.268;2023-04-02T13:23:49;97429.44;;;12.65;88.21
5283;BME280;15376;48.540;9.268;2023-04-02T13:26:25;97437.91;;;12.88;87.51
5283;BME280;15376;48.540;9.268;2023-04-02T13:31:26;97436.66;;;13.19;88.46
5283;BME280;15376;48.540;9.268;2023-04-02T13:33:52;97430.88;;;13.15;86.80
5283;BME280;15376;48.540;9.268;2023-04-02T13:36:17;97442.00;;;13.19;84.77
5283;BME280;15376;48.540;9.268;2023-04-02T13:38:42;97422.34;;;13.66;83.52
5283;BME280;15376;48.540;9.268;2023-04-02T13:41:41;97430.59;;;13.84;84.48
5283;BME280;15376;48.540;9.268;2023-04-02T13:44:17;97419.91;;;13.71;82.96
5283;BME280;15376;48.540;9.268;2023-04-02T13:46:43;97440.84;;;13.81;82.97
5283;BME280;15376;48.540;9.268;2023-04-02T13:49:08;97420.31;;;13.75;82.11
5283;BME280;15376;48.540;9.268;2023-04-02T13:51:37;97443.31;;;13.76;81.31
5283;BME280;15376;48.540;9.268;2023-04-02T13:54:06;97420.94;;;13.77;80.99
5283;BME280;15376;48.540;9.268;2023-04-02T13:56:33;97440.25;;;13.79;81.82
5283;BME280;15376;48.540;9.268;2023-04-02T13:59:01;97428.72;;;13.72;82.98
5283;BME280;15376;48.540;9.268;2023-04-02T14:01:26;97444.13;;;13.69;83.85
5283;BME280;15376;48.540;9.268;2023-04-02T14:03:53;97450.03;;;13.39;85.49
5283;BME280;15376;48.540;9.268;2023-04-02T14:20:04;97451.31;;;13.01;85.29
5283;BME280;15376;48.540;9.268;2023-04-02T14:22:42;97465.53;;;13.15;84.08
5283;BME280;15376;48.540;9.268;2023-04-02T14:33:58;97460.03;;;13.17;86.52
5283;BME280;15376;48.540;9.268;2023-04-02T14:39:02;97460.72;;;12.97;87.96
5283;BME280;15376;48.540;9.268;2023-04-02T14:41:44;97463.81;;;12.60;88.00
5283;BME280;15376;48.540;9.268;2023-04-02T14:44:11;97467.91;;;12.56;90.42
5283;BME280;15376;48.540;9.268;2023-04-02T14:46:37;97462.31;;;12.16;87.43
5283;BME280;15376;48.540;9.268;2023-04-02T14:49:23;97478.03;;;12.11;88.46
5283;BME280;15376;48.540;9.268;2023-04-02T14:59:52;97490.78;;;10.86;100.00
5283;BME280;15376;48.540;9.268;2023-04-02T15:05:04;97507.38;;;10.59;100.00
5283;BME280;15376;48.540;9.268;2023-04-02T15:07:38;97511.63;;;10.68;100.00
5283;BME280;15376;48.540;9.268;2023-04-02T15:10:19;97519.44;;;10.47;100.00
5283;BME280;15376;48.540;9.268;2023-04-02T15:12:57;97502.34;;;10.64;100.00
5283;BME280;15376;48.540;9.268;2023-04-02T15:15:53;97514.38;;;10.75;100.00
5283;BME280;15376;48.540;9.268;2023-04-02T15:18:21;97495.56;;;10.61;100.00
5283;BME280;15376;48.540;9.268;2023-04-02T15:23:58;97531.28;;;10.59;100.00
5283;BME280;15376;48.540;9.268;2023-04-02T15:29:16;97532.91;;;10.30;100.00
5283;BME280;15376;48.540;9.268;2023-04-02T15:31:45;97546.34;;;10.06;100.00
5283;BME280;15376;48.540;9.268;2023-04-02T15:34:37;97542.38;;;10.02;100.00
5283;BME280;15376;48.540;9.268;2023-04-02T15:45:35;97554.19;;;9.77;100.00
5283;BME280;15376;48.540;9.268;2023-04-02T15:48:14;97554.88;;;9.70;100.00
5283;BME280;15376;48.540;9.268;2023-04-02T15:50:56;97558.97;;;9.58;100.00
5283;BME280;15376;48.540;9.268;2023-04-02T15:53:45;97570.91;;;9.54;100.00
5283;BME280;15376;48.540;9.268;2023-04-02T16:10:45;97580.16;;;8.72;100.00
5283;BME280;15376;48.540;9.268;2023-04-02T16:13:34;97610.94;;;8.73;100.00
5283;BME280;15376;48.540;9.268;2023-04-02T16:16:11;97604.66;;;8.58;100.00
5283;BME280;15376;48.540;9.268;2023-04-02T16:18:51;97618.56;;;8.60;100.00
5283;BME280;15376;48.540;9.268;2023-04-02T16:21:27;97624.19;;;8.65;100.00
5283;BME280;15376;48.540;9.268;2023-04-02T16:23:53;97616.09;;;8.66;100.00
5283;BME280;15376;48.540;9.268;2023-04-02T16:26:33;97622.53;;;8.64;100.00
5283;BME280;15376;48.540;9.268;2023-04-02T16:34:55;97635.44;;;8.75;100.00
5283;BME280;15376;48.540;9.268;2023-04-02T16:37:35;97632.47;;;8.70;100.00
5283;BME280;15376;48.540;9.268;2023-04-02T16:40:16;97643.38;;;8.67;100.00
5283;BME280;15376;48.540;9.268;2023-04-02T16:43:12;97646.53;;;8.62;100.00
5283;BME280;15376;48.540;9.268;2023-04-02T16:45:53;97635.78;;;8.56;100.00
5283;BME280;15376;48.540;9.268;2023-04-02T16:51:37;97666.03;;;8.45;100.00
5283;BME280;15376;48.540;9.268;2023-04-02T16:54:12;97671.50;;;8.35;100.00
5283;BME280;15376;48.540;9.268;2023-04-02T17:03:16;97688.28;;;8.10;100.00
5283;BME280;15376;48.540;9.268;2023-04-02T17:05:57;97696.56;;;8.07;100.00
5283;BME280;15376;48.540;9.268;2023-04-02T17:08:33;97700.19;;;7.98;100.00